createdAt,value
2022-10-19T00:00:31.718Z,59.46
2022-10-19T00:02:58.127Z,59.94
2022-10-19T00:05:27.737Z,59.00
2022-10-19T00:07:54.140Z,59.50
2022-10-19T00:10:20.550Z,59.38
2022-10-19T00:15:18.339Z,59.34
2022-10-19T00:17:46.102Z,59.41
2022-10-19T00:20:12.539Z,59.41
2022-10-19T00:22:39.076Z,59.45
2022-10-19T00:25:06.782Z,59.45
2022-10-19T00:27:33.239Z,60.04
2022-10-19T00:29:59.709Z,60.02
2022-10-19T00:32:26.163Z,60.95
2022-10-19T00:34:54.891Z,60.40
2022-10-19T00:37:21.279Z,60.22
2022-10-19T00:39:48.001Z,60.86
2022-10-19T00:42:14.463Z,61.46
2022-10-19T00:45:03.282Z,60.17
2022-10-19T00:47:30.758Z,62.28
2022-10-19T00:49:59.083Z,60.92
2022-10-19T00:52:27.693Z,62.11
2022-10-19T00:54:56.437Z,61.10
2022-10-19T00:57:23.964Z,62.83
2022-10-19T00:59:51.610Z,62.55
2022-10-19T01:02:18.050Z,61.63
2022-10-19T01:04:47.839Z,61.82
2022-10-19T01:07:15.746Z,61.62
2022-10-19T01:09:42.171Z,60.89
2022-10-19T01:12:20.795Z,61.77
2022-10-19T01:15:03.531Z,61.45
2022-10-19T01:17:43.823Z,62.18
2022-10-19T01:20:40.059Z,61.64
2022-10-19T01:23:30.668Z,61.08
2022-10-19T01:26:13.648Z,61.89
2022-10-19T01:28:48.948Z,63.38
2022-10-19T01:31:27.412Z,63.14
2022-10-19T01:34:04.304Z,63.64
2022-10-19T01:36:39.309Z,63.24
2022-10-19T01:39:10.160Z,63.15
2022-10-19T01:41:45.687Z,63.78
2022-10-19T01:44:15.976Z,63.04
2022-10-19T01:46:47.076Z,63.16
2022-10-19T01:49:18.918Z,63.46
2022-10-19T01:51:50.519Z,63.40
2022-10-19T01:54:19.396Z,62.27
2022-10-19T01:56:48.277Z,63.11
2022-10-19T01:59:18.796Z,62.70
2022-10-19T02:01:50.576Z,62.87
2022-10-19T02:04:19.967Z,62.39
2022-10-19T02:06:46.822Z,62.47
2022-10-19T02:09:13.271Z,62.56
2022-10-19T02:11:39.874Z,62.37
2022-10-19T02:14:10.677Z,61.19
2022-10-19T02:16:41.372Z,62.22
2022-10-19T02:19:11.810Z,62.61
2022-10-19T02:21:38.273Z,62.08
2022-10-19T02:24:05.011Z,61.45
2022-10-19T02:26:31.924Z,63.90
2022-10-19T02:28:58.622Z,62.93
2022-10-19T02:31:26.234Z,61.24
2022-10-19T02:33:53.280Z,62.55
2022-10-19T02:36:21.590Z,62.90
2022-10-19T02:38:48.090Z,61.96
2022-10-19T02:41:18.585Z,62.46
2022-10-19T02:43:48.904Z,61.43
2022-10-19T02:46:20.274Z,60.95
2022-10-19T02:48:48.185Z,62.39
2022-10-19T02:51:31.481Z,61.70
2022-10-19T02:53:59.982Z,61.59
2022-10-19T02:56:29.106Z,62.01
2022-10-19T02:58:55.736Z,63.15
2022-10-19T03:01:22.167Z,62.79
2022-10-19T03:03:48.777Z,61.12
2022-10-19T03:06:15.314Z,62.63
2022-10-19T03:08:43.129Z,61.94
2022-10-19T03:11:09.664Z,63.33
2022-10-19T03:13:36.163Z,62.75
2022-10-19T03:16:06.895Z,62.63
2022-10-19T03:18:33.305Z,62.94
2022-10-19T03:21:04.861Z,62.51
2022-10-19T03:23:31.301Z,63.29
2022-10-19T03:25:59.043Z,63.99
2022-10-19T03:28:25.635Z,63.59
2022-10-19T03:30:52.087Z,63.87
2022-10-19T03:33:18.554Z,63.95
2022-10-19T03:35:45.161Z,63.84
2022-10-19T03:38:11.607Z,63.22
2022-10-19T03:40:38.109Z,63.63
2022-10-19T03:43:06.085Z,63.34
2022-10-19T03:45:32.487Z,64.03
2022-10-19T03:47:58.922Z,63.36
2022-10-19T03:50:25.608Z,63.36
2022-10-19T03:52:52.073Z,63.42
2022-10-19T03:55:18.496Z,63.94
2022-10-19T03:57:44.895Z,64.37
2022-10-19T04:00:14.143Z,63.59
2022-10-19T04:02:40.583Z,63.57
2022-10-19T04:05:07.980Z,62.91
2022-10-19T04:07:34.648Z,63.47
2022-10-19T04:10:01.228Z,63.66
2022-10-19T04:12:27.697Z,64.97
2022-10-19T04:14:57.365Z,65.05
2022-10-19T04:17:25.874Z,63.82
2022-10-19T04:19:52.430Z,63.80
2022-10-19T04:22:18.887Z,63.58
2022-10-19T04:24:45.296Z,64.08
2022-10-19T04:27:11.722Z,62.81
2022-10-19T04:29:38.219Z,63.20
2022-10-19T04:32:04.843Z,62.54
2022-10-19T04:34:35.219Z,62.13
2022-10-19T04:37:04.133Z,64.62
2022-10-19T04:39:30.534Z,64.21
2022-10-19T04:41:56.951Z,63.99
2022-10-19T04:46:54.833Z,63.65
2022-10-19T04:49:21.274Z,62.75
2022-10-19T04:51:49.086Z,63.65
2022-10-19T04:54:15.558Z,64.02
2022-10-19T04:56:41.988Z,64.09
2022-10-19T04:59:09.386Z,63.69
2022-10-19T05:01:35.822Z,63.47
2022-10-19T05:04:03.221Z,64.86
2022-10-19T05:06:30.456Z,65.40
2022-10-19T05:08:58.869Z,64.71
2022-10-19T05:11:25.981Z,64.67
2022-10-19T05:13:52.591Z,64.12
2022-10-19T05:16:20.635Z,64.37
2022-10-19T05:18:48.373Z,64.01
2022-10-19T05:21:15.529Z,63.87
2022-10-19T05:23:42.264Z,63.43
2022-10-19T05:26:11.749Z,65.47
2022-10-19T05:28:38.446Z,64.76
2022-10-19T05:31:07.083Z,62.61
2022-10-19T05:33:33.937Z,63.06
2022-10-19T05:36:10.119Z,62.96
2022-10-19T05:38:36.547Z,62.31
2022-10-19T05:41:02.975Z,62.52
2022-10-19T05:43:30.750Z,62.88
2022-10-19T05:45:57.207Z,63.56
2022-10-19T05:48:23.594Z,63.47
2022-10-19T05:50:53.220Z,61.88
2022-10-19T05:53:19.965Z,62.18
2022-10-19T05:55:46.572Z,61.95
2022-10-19T05:58:12.964Z,61.92
2022-10-19T06:00:40.706Z,63.32
2022-10-19T06:03:07.090Z,61.83
2022-10-19T06:05:36.030Z,61.64
2022-10-19T06:08:02.568Z,60.83
2022-10-19T06:10:29.124Z,60.58
2022-10-19T06:12:55.531Z,62.13
2022-10-19T06:15:22.115Z,62.49
2022-10-19T06:17:49.836Z,61.51
2022-10-19T06:20:16.352Z,60.46
2022-10-19T06:22:42.790Z,61.28
2022-10-19T06:25:09.655Z,61.21
2022-10-19T06:27:36.750Z,62.68
2022-10-19T06:30:04.708Z,61.75
2022-10-19T06:32:31.104Z,61.34
2022-10-19T06:34:58.884Z,61.36
2022-10-19T06:37:25.299Z,61.05
2022-10-19T06:39:51.722Z,61.10
2022-10-19T06:42:18.174Z,60.38
2022-10-19T06:44:44.628Z,60.69
2022-10-19T06:47:11.054Z,61.43
2022-10-19T06:49:37.469Z,60.58
2022-10-19T06:52:05.505Z,61.59
2022-10-19T06:54:31.931Z,60.67
2022-10-19T06:56:58.335Z,63.33
2022-10-19T06:59:24.913Z,62.75
2022-10-19T07:01:51.591Z,62.33
2022-10-19T07:04:18.014Z,61.65
2022-10-19T07:06:44.656Z,63.38
2022-10-19T07:09:12.397Z,61.27
2022-10-19T07:11:45.573Z,62.26
2022-10-19T07:14:12.326Z,62.66
2022-10-19T07:16:38.866Z,63.79
2022-10-19T07:19:05.343Z,62.14
2022-10-19T07:21:31.972Z,60.16
2022-10-19T07:23:58.399Z,59.44
2022-10-19T07:26:27.196Z,60.03
2022-10-19T07:28:55.876Z,59.96
2022-10-19T07:31:23.680Z,59.11
2022-10-19T07:33:52.295Z,57.88
2022-10-19T07:36:18.934Z,55.61
2022-10-19T07:38:45.377Z,54.77
2022-10-19T07:41:14.698Z,53.35
2022-10-19T07:43:44.418Z,55.25
2022-10-19T07:46:13.562Z,56.34
2022-10-19T07:48:40.037Z,56.51
2022-10-19T07:51:09.102Z,56.42
2022-10-19T07:53:36.524Z,57.12
2022-10-19T07:56:04.178Z,56.31
2022-10-19T07:58:30.646Z,57.47
2022-10-19T08:01:01.116Z,58.86
2022-10-19T08:06:16.619Z,55.82
2022-10-19T08:08:43.426Z,55.02
2022-10-19T08:11:12.192Z,53.91
2022-10-19T08:13:39.442Z,52.85
2022-10-19T08:16:20.942Z,51.79
2022-10-19T08:18:47.427Z,51.88
2022-10-19T08:21:13.814Z,50.96
2022-10-19T08:23:40.221Z,50.61
2022-10-19T08:26:06.996Z,50.53
2022-10-19T08:28:33.466Z,50.79
2022-10-19T08:30:59.910Z,50.16
2022-10-19T08:33:27.658Z,50.33
2022-10-19T08:35:54.078Z,49.54
2022-10-19T08:38:20.629Z,50.51
2022-10-19T08:40:47.252Z,52.17
2022-10-19T08:43:22.459Z,50.82
2022-10-19T08:45:53.486Z,50.45
2022-10-19T08:48:27.241Z,50.30
2022-10-19T08:50:56.433Z,52.29
2022-10-19T08:53:32.630Z,52.55
2022-10-19T08:56:38.936Z,51.65
2022-10-19T08:59:13.696Z,52.49
2022-10-19T09:01:46.245Z,53.01
2022-10-19T09:04:19.866Z,50.78
2022-10-19T09:06:52.349Z,51.74
2022-10-19T09:09:20.634Z,50.95
2022-10-19T09:11:50.166Z,52.76
2022-10-19T09:14:21.615Z,50.06
2022-10-19T09:16:48.175Z,51.29
2022-10-19T09:19:20.793Z,53.23
2022-10-19T09:21:51.451Z,52.85
2022-10-19T09:24:27.867Z,53.34
2022-10-19T09:26:57.053Z,54.33
2022-10-19T09:29:27.904Z,53.75
2022-10-19T09:34:30.187Z,55.35
2022-10-19T09:36:59.442Z,54.74
2022-10-19T09:39:29.466Z,54.37
2022-10-19T09:41:57.999Z,53.38
2022-10-19T09:44:26.508Z,53.54
2022-10-19T09:46:58.189Z,53.28
2022-10-19T09:49:39.816Z,51.68
2022-10-19T09:52:22.923Z,51.56
2022-10-19T09:54:58.644Z,53.87
2022-10-19T09:57:25.575Z,53.90
2022-10-19T09:59:52.658Z,53.72
2022-10-19T10:02:21.698Z,53.63
2022-10-19T10:04:55.473Z,52.91
2022-10-19T10:07:27.758Z,53.33
2022-10-19T10:09:54.269Z,52.42
2022-10-19T10:12:22.560Z,53.17
2022-10-19T10:14:50.969Z,52.55
2022-10-19T10:17:20.626Z,52.89
2022-10-19T10:20:01.432Z,53.05
2022-10-19T10:22:32.280Z,53.48
2022-10-19T10:24:59.144Z,52.96
2022-10-19T10:27:31.269Z,52.12
2022-10-19T10:29:58.206Z,51.90
2022-10-19T10:32:26.120Z,52.04
2022-10-19T10:35:01.066Z,52.13
2022-10-19T10:37:37.499Z,51.33
2022-10-19T10:40:06.370Z,51.76
2022-10-19T10:42:39.684Z,52.86
2022-10-19T10:45:17.383Z,51.67
2022-10-19T10:47:44.255Z,52.83
2022-10-19T10:50:19.452Z,50.92
2022-10-19T10:52:58.483Z,52.76
2022-10-19T10:55:25.006Z,52.53
2022-10-19T10:58:00.675Z,51.98
2022-10-19T11:00:29.364Z,52.35
2022-10-19T11:03:04.527Z,51.73
2022-10-19T11:05:33.535Z,51.27
2022-10-19T11:08:12.291Z,51.44
2022-10-19T11:10:43.341Z,52.32
2022-10-19T11:13:16.673Z,52.03
2022-10-19T11:15:51.130Z,52.62
2022-10-19T11:18:22.628Z,52.48
2022-10-19T11:20:57.257Z,50.02
2022-10-19T11:23:40.176Z,51.34
2022-10-19T11:26:18.923Z,52.22
2022-10-19T11:28:55.765Z,52.27
2022-10-19T11:31:30.463Z,51.29
2022-10-19T11:34:07.350Z,53.22
2022-10-19T11:36:46.154Z,52.98
2022-10-19T11:39:31.732Z,51.58
2022-10-19T11:42:04.056Z,51.95
2022-10-19T11:44:43.073Z,51.71
2022-10-19T11:47:24.642Z,52.84
2022-10-19T11:50:02.622Z,52.01
2022-10-19T11:52:37.854Z,51.39
2022-10-19T11:55:15.425Z,49.76
2022-10-19T11:57:50.836Z,51.00
2022-10-19T12:00:39.602Z,48.90
2022-10-19T12:03:30.549Z,50.68
2022-10-19T12:06:06.511Z,51.76
2022-10-19T12:08:48.309Z,51.81
2022-10-19T12:11:28.205Z,50.53
2022-10-19T12:13:58.116Z,49.25
2022-10-19T12:16:35.577Z,51.19
2022-10-19T12:19:05.329Z,51.67
2022-10-19T12:21:36.265Z,51.15
2022-10-19T12:24:06.316Z,50.75
2022-10-19T12:26:36.259Z,53.00
2022-10-19T12:29:06.635Z,52.18
2022-10-19T12:31:35.360Z,52.28
2022-10-19T12:34:10.405Z,50.92
2022-10-19T12:36:44.718Z,50.82
2022-10-19T12:39:21.523Z,48.43
2022-10-19T12:41:56.200Z,49.11
2022-10-19T12:44:58.594Z,50.42
2022-10-19T12:47:26.279Z,49.47
2022-10-19T12:49:53.881Z,50.44
2022-10-19T12:52:38.644Z,47.99
2022-10-19T12:55:23.949Z,49.57
2022-10-19T12:58:05.120Z,50.44
2022-10-19T13:00:33.628Z,49.38
2022-10-19T13:03:03.825Z,49.86
2022-10-19T13:05:31.930Z,50.79
2022-10-19T13:08:02.023Z,50.88
2022-10-19T13:10:30.092Z,50.56
2022-10-19T13:12:58.089Z,50.55
2022-10-19T13:15:51.043Z,52.79
2022-10-19T13:19:06.250Z,53.25
2022-10-19T13:21:50.486Z,53.04
2022-10-19T13:24:27.471Z,51.16
2022-10-19T13:27:29.402Z,52.53
2022-10-19T13:29:57.265Z,51.91
2022-10-19T13:32:41.568Z,51.58
2022-10-19T13:35:34.601Z,52.00
2022-10-19T13:38:23.385Z,52.77
2022-10-19T13:41:01.678Z,52.63
2022-10-19T13:43:31.863Z,52.73
2022-10-19T13:46:05.130Z,52.16
2022-10-19T13:48:42.497Z,52.31
2022-10-19T13:51:19.708Z,52.36
2022-10-19T13:53:52.183Z,51.23
2022-10-19T13:56:30.755Z,50.17
2022-10-19T13:59:23.169Z,51.06
2022-10-19T14:02:17.480Z,49.51
2022-10-19T14:04:50.292Z,50.84
2022-10-19T14:07:23.704Z,51.44
2022-10-19T14:10:02.092Z,50.89
2022-10-19T14:12:30.089Z,51.26
2022-10-19T14:14:56.609Z,52.55
2022-10-19T14:17:26.024Z,52.17
2022-10-19T14:19:54.846Z,52.35
2022-10-19T14:22:26.566Z,51.86
2022-10-19T14:25:00.783Z,51.85
2022-10-19T14:27:27.667Z,50.88
2022-10-19T14:29:54.336Z,52.42
2022-10-19T14:32:25.427Z,53.04
2022-10-19T14:34:53.041Z,53.12
2022-10-19T14:37:21.926Z,53.62
2022-10-19T14:40:00.808Z,53.92
2022-10-19T14:42:40.010Z,52.80
2022-10-19T14:45:12.746Z,50.83
2022-10-19T14:47:53.014Z,52.68
2022-10-19T14:50:23.346Z,53.35
2022-10-19T14:52:52.670Z,53.09
2022-10-19T14:55:20.832Z,53.62
2022-10-19T14:57:51.029Z,52.94
2022-10-19T15:00:21.240Z,53.09
2022-10-19T15:02:57.961Z,53.45
2022-10-19T15:05:27.819Z,53.29
2022-10-19T15:07:55.029Z,53.36
2022-10-19T15:10:24.203Z,52.97
2022-10-19T15:12:52.571Z,54.23
2022-10-19T15:15:22.707Z,54.09
2022-10-19T15:17:52.550Z,54.11
2022-10-19T15:20:28.607Z,54.39
2022-10-19T15:22:56.208Z,54.27
2022-10-19T15:25:33.974Z,53.61
2022-10-19T15:28:19.282Z,54.91
2022-10-19T15:30:56.971Z,54.49
2022-10-19T15:33:23.552Z,54.21
2022-10-19T15:35:51.463Z,54.41
2022-10-19T15:38:23.867Z,54.11
2022-10-19T15:40:56.844Z,53.94
2022-10-19T15:43:45.424Z,54.53
2022-10-19T15:46:30.442Z,55.20
2022-10-19T15:48:59.236Z,55.56
2022-10-19T15:51:41.630Z,55.31
2022-10-19T15:54:08.732Z,55.75
2022-10-19T15:56:38.009Z,56.26
2022-10-19T15:59:06.197Z,55.85
2022-10-19T16:01:33.460Z,56.04
2022-10-19T16:04:00.137Z,56.70
2022-10-19T16:06:29.179Z,56.12
2022-10-19T16:08:57.441Z,56.47
2022-10-19T16:11:24.530Z,56.89
2022-10-19T16:13:51.207Z,56.50
2022-10-19T16:16:21.763Z,56.99
2022-10-19T16:18:48.192Z,56.96
2022-10-19T16:21:15.722Z,57.41
2022-10-19T16:23:42.377Z,56.83
2022-10-19T16:26:13.345Z,56.75
2022-10-19T16:28:39.828Z,57.84
2022-10-19T16:31:06.234Z,57.44
2022-10-19T16:33:32.646Z,57.24
2022-10-19T16:35:59.068Z,57.72
2022-10-19T16:38:25.477Z,57.46
2022-10-19T16:40:51.884Z,57.96
2022-10-19T16:43:19.603Z,57.47
2022-10-19T16:45:46.218Z,58.09
2022-10-19T16:48:12.643Z,58.93
2022-10-19T16:50:39.301Z,58.19
2022-10-19T16:53:07.619Z,58.97
2022-10-19T16:55:34.056Z,58.59
2022-10-19T16:58:00.456Z,59.68
2022-10-19T17:00:28.212Z,59.62
2022-10-19T17:02:54.612Z,58.37
2022-10-19T17:05:21.013Z,57.54
2022-10-19T17:07:47.650Z,57.88
2022-10-19T17:10:14.095Z,58.30
2022-10-19T17:12:40.546Z,58.09
2022-10-19T17:17:56.065Z,58.46
2022-10-19T17:20:22.483Z,59.49
2022-10-19T17:22:51.765Z,59.35
2022-10-19T17:25:18.171Z,60.22
2022-10-19T17:27:44.745Z,59.81
2022-10-19T17:30:11.277Z,60.55
2022-10-19T17:32:37.825Z,60.46
2022-10-19T17:35:07.275Z,60.41
2022-10-19T17:37:33.935Z,60.19
2022-10-19T17:40:00.536Z,62.52
2022-10-19T17:42:27.196Z,63.21
2022-10-19T17:44:53.753Z,61.31
2022-10-19T17:47:20.261Z,61.19
2022-10-19T17:49:46.849Z,61.07
2022-10-19T17:52:14.711Z,61.96
2022-10-19T17:54:48.983Z,61.61
2022-10-19T17:57:27.599Z,62.71
2022-10-19T17:59:54.069Z,61.83
2022-10-19T18:02:20.541Z,61.39
2022-10-19T18:04:46.995Z,63.11
2022-10-19T18:07:14.771Z,60.81
2022-10-19T18:09:41.248Z,59.59
2022-10-19T18:12:07.882Z,59.46
2022-10-19T18:14:34.366Z,59.88
2022-10-19T18:17:00.780Z,62.16
2022-10-19T18:19:27.241Z,62.22
2022-10-19T18:21:53.690Z,62.79
2022-10-19T18:24:21.460Z,63.55
2022-10-19T18:26:48.681Z,62.41
2022-10-19T18:29:17.207Z,62.17
2022-10-19T18:31:43.971Z,61.74
2022-10-19T18:34:14.101Z,61.72
2022-10-19T18:36:40.907Z,62.01
2022-10-19T18:39:07.338Z,62.04
2022-10-19T18:41:35.103Z,60.99
2022-10-19T18:44:03.819Z,62.34
2022-10-19T18:46:31.616Z,62.55
2022-10-19T18:48:59.832Z,61.08
2022-10-19T18:51:26.464Z,60.65
2022-10-19T18:53:52.981Z,61.99
2022-10-19T18:56:21.686Z,63.66
2022-10-19T18:58:49.576Z,61.85
2022-10-19T19:01:18.682Z,61.14
2022-10-19T19:03:46.488Z,63.22
2022-10-19T19:06:14.551Z,62.93
2022-10-19T19:08:41.277Z,63.27
2022-10-19T19:11:12.502Z,63.69
2022-10-19T19:13:39.778Z,63.79
2022-10-19T19:16:08.598Z,64.21
2022-10-19T19:18:35.794Z,64.78
2022-10-19T19:21:03.299Z,64.00
2022-10-19T19:23:30.901Z,63.92
2022-10-19T19:25:57.325Z,64.21
2022-10-19T19:28:23.745Z,64.42
2022-10-19T19:30:50.168Z,64.82
2022-10-19T19:33:17.957Z,65.33
2022-10-19T19:35:44.844Z,65.03
2022-10-19T19:38:12.400Z,65.30
2022-10-19T19:40:40.119Z,64.80
2022-10-19T19:43:06.608Z,64.67
2022-10-19T19:45:33.070Z,63.23
2022-10-19T19:47:59.525Z,62.90
2022-10-19T19:50:27.281Z,63.66
2022-10-19T19:52:53.706Z,64.30
2022-10-19T19:55:20.149Z,65.06
2022-10-19T19:57:46.599Z,64.38
2022-10-19T20:00:13.967Z,64.86
2022-10-19T20:02:40.380Z,63.51
2022-10-19T20:05:07.312Z,62.73
2022-10-19T20:07:35.582Z,62.72
2022-10-19T20:10:02.159Z,63.50
2022-10-19T20:12:28.652Z,63.27
2022-10-19T20:14:55.065Z,64.26
2022-10-19T20:17:21.492Z,65.28
2022-10-19T20:19:48.083Z,65.86
2022-10-19T20:22:14.597Z,65.60
2022-10-19T20:24:42.348Z,65.14
2022-10-19T20:27:08.931Z,64.83
2022-10-19T20:29:35.329Z,64.96
2022-10-19T20:32:02.056Z,65.10
2022-10-19T20:34:28.669Z,64.87
2022-10-19T20:36:55.070Z,64.39
2022-10-19T20:39:21.493Z,65.12
2022-10-19T20:41:49.238Z,64.18
2022-10-19T20:44:15.645Z,64.42
2022-10-19T20:46:42.092Z,65.66
2022-10-19T20:49:11.352Z,66.18
2022-10-19T20:51:38.759Z,64.53
2022-10-19T20:54:06.992Z,66.46
2022-10-19T20:56:35.702Z,65.99
2022-10-19T20:59:06.215Z,66.05
2022-10-19T21:01:34.881Z,65.75
2022-10-19T21:04:03.572Z,63.42
2022-10-19T21:06:31.782Z,64.68
2022-10-19T21:08:59.085Z,65.41
2022-10-19T21:11:27.623Z,64.71
2022-10-19T21:13:55.840Z,64.72
2022-10-19T21:16:25.672Z,65.22
2022-10-19T21:18:52.148Z,66.26
2022-10-19T21:21:20.278Z,65.73
2022-10-19T21:23:49.195Z,64.00
2022-10-19T21:26:16.698Z,64.72
2022-10-19T21:28:46.726Z,65.81
2022-10-19T21:31:13.496Z,65.06
2022-10-19T21:33:41.493Z,65.62
2022-10-19T21:36:09.490Z,63.44
2022-10-19T21:38:36.318Z,65.18
2022-10-19T21:41:05.122Z,65.59
2022-10-19T21:43:32.151Z,64.59
2022-10-19T21:46:02.076Z,65.39
2022-10-19T21:48:29.752Z,67.68
2022-10-19T21:50:57.570Z,67.37
2022-10-19T21:53:24.156Z,67.60
2022-10-19T21:55:51.229Z,67.05
2022-10-19T21:58:18.315Z,66.99
2022-10-19T22:00:44.728Z,66.60
2022-10-19T22:03:11.401Z,66.99
2022-10-19T22:05:37.890Z,67.09
2022-10-19T22:08:05.881Z,67.31
2022-10-19T22:10:32.291Z,66.89
2022-10-19T22:12:58.765Z,67.41
2022-10-19T22:15:25.199Z,67.17
2022-10-19T22:17:51.618Z,68.32
2022-10-19T22:20:18.280Z,68.27
2022-10-19T22:22:44.849Z,67.69
2022-10-19T22:25:12.570Z,67.65
2022-10-19T22:27:38.964Z,67.83
2022-10-19T22:30:06.738Z,67.73
2022-10-19T22:32:33.419Z,67.76
2022-10-19T22:35:00.030Z,67.56
2022-10-19T22:37:26.464Z,67.42
2022-10-19T22:39:52.855Z,66.82
2022-10-19T22:42:20.573Z,66.44
2022-10-19T22:44:47.121Z,66.69
2022-10-19T22:47:13.614Z,67.91
2022-10-19T22:49:40.014Z,67.12
2022-10-19T22:52:06.441Z,67.77
2022-10-19T22:54:32.831Z,68.17
2022-10-19T22:56:59.241Z,68.48
2022-10-19T22:59:27.142Z,67.19
2022-10-19T23:01:53.622Z,68.32
2022-10-19T23:04:20.023Z,67.83
2022-10-19T23:06:46.427Z,67.54
2022-10-19T23:09:12.810Z,68.00
2022-10-19T23:11:39.188Z,66.55
2022-10-19T23:14:05.604Z,66.24
2022-10-19T23:16:33.391Z,66.64
2022-10-19T23:18:59.892Z,66.44
2022-10-19T23:21:26.478Z,66.66
2022-10-19T23:23:53.499Z,67.77
2022-10-19T23:26:20.601Z,67.19
2022-10-19T23:28:48.792Z,67.54
2022-10-19T23:31:17.608Z,67.61
2022-10-19T23:33:45.907Z,67.83
2022-10-19T23:36:14.486Z,66.53
2022-10-19T23:38:41.220Z,67.83
2022-10-19T23:41:07.776Z,68.85
2022-10-19T23:46:00.936Z,68.31
2022-10-19T23:48:27.744Z,69.01
2022-10-19T23:51:00.083Z,68.74
2022-10-19T23:53:27.688Z,69.14
2022-10-19T23:55:58.744Z,69.55
2022-10-19T23:58:25.221Z,70.92
